createdAt,value
2022-10-06T00:02:23.302Z,101848.28
2022-10-06T00:05:26.091Z,101846.31
2022-10-06T00:08:31.542Z,101847.97
2022-10-06T00:11:35.711Z,101845.97
2022-10-06T00:14:38.759Z,101854.09
2022-10-06T00:17:42.154Z,101845.97
2022-10-06T00:20:44.947Z,101848.47
2022-10-06T00:23:47.621Z,101849.97
2022-10-06T00:26:50.372Z,101844.00
2022-10-06T00:29:53.219Z,101847.31
2022-10-06T00:33:01.707Z,101846.47
2022-10-06T00:36:04.769Z,101845.50
2022-10-06T00:39:07.461Z,101834.09
2022-10-06T00:42:22.567Z,101845.00
2022-10-06T00:45:40.041Z,101835.09
2022-10-06T00:48:44.799Z,101831.94
2022-10-06T00:51:51.015Z,101826.16
2022-10-06T00:54:54.035Z,101827.81
2022-10-06T00:57:57.314Z,101822.38
2022-10-06T01:01:00.314Z,101816.75
2022-10-06T01:04:09.480Z,101819.88
2022-10-06T01:07:12.479Z,101817.72
2022-10-06T01:10:15.607Z,101818.69
2022-10-06T01:13:18.785Z,101816.75
2022-10-06T01:16:27.155Z,101816.88
2022-10-06T01:19:47.610Z,101811.78
2022-10-06T01:22:55.652Z,101808.97
2022-10-06T01:26:01.265Z,101810.47
2022-10-06T01:29:04.267Z,101807.31
2022-10-06T01:32:08.031Z,101813.59
2022-10-06T01:35:11.789Z,101813.25
2022-10-06T01:38:16.433Z,101817.06
2022-10-06T01:41:22.527Z,101804.97
2022-10-06T01:44:25.398Z,101805.81
2022-10-06T01:47:28.308Z,101808.31
2022-10-06T01:50:31.970Z,101802.19
2022-10-06T01:53:34.861Z,101808.63
2022-10-06T01:56:38.040Z,101806.66
2022-10-06T01:59:40.824Z,101799.69
2022-10-06T02:02:43.765Z,101793.75
2022-10-06T02:05:46.699Z,101794.09
2022-10-06T02:08:49.972Z,101793.59
2022-10-06T02:11:53.357Z,101796.91
2022-10-06T02:14:56.186Z,101795.09
2022-10-06T02:17:59.809Z,101795.41
2022-10-06T02:21:04.054Z,101792.44
2022-10-06T02:24:07.376Z,101798.06
2022-10-06T02:27:10.363Z,101787.47
2022-10-06T02:30:14.877Z,101788.31
2022-10-06T02:33:19.414Z,101794.94
2022-10-06T02:36:25.245Z,101798.72
2022-10-06T02:39:28.789Z,101796.56
2022-10-06T02:42:31.773Z,101794.75
2022-10-06T02:45:35.837Z,101793.28
2022-10-06T02:48:39.826Z,101788.81
2022-10-06T02:51:43.422Z,101792.78
2022-10-06T02:54:47.035Z,101789.13
2022-10-06T02:57:50.275Z,101786.63
2022-10-06T03:00:53.129Z,101777.38
2022-10-06T03:03:56.219Z,101784.47
2022-10-06T03:06:59.154Z,101788.13
2022-10-06T03:10:07.534Z,101787.09
2022-10-06T03:13:10.311Z,101783.47
2022-10-06T03:16:19.484Z,101794.69
2022-10-06T03:19:22.716Z,101796.53
2022-10-06T03:22:26.106Z,101797.03
2022-10-06T03:25:31.189Z,101798.00
2022-10-06T03:28:34.399Z,101806.94
2022-10-06T03:31:38.148Z,101807.28
2022-10-06T03:34:41.282Z,101800.19
2022-10-06T03:37:47.613Z,101797.03
2022-10-06T03:40:50.839Z,101800.81
2022-10-06T03:43:55.126Z,101805.78
2022-10-06T03:46:58.329Z,101805.44
2022-10-06T03:50:01.779Z,101798.66
2022-10-06T03:53:05.518Z,101810.56
2022-10-06T03:56:11.940Z,101799.00
2022-10-06T03:59:17.524Z,101797.47
2022-10-06T04:02:22.314Z,101805.41
2022-10-06T04:05:25.080Z,101800.28
2022-10-06T04:08:30.165Z,101809.19
2022-10-06T04:11:37.723Z,101812.81
2022-10-06T04:14:41.467Z,101807.38
2022-10-06T04:17:44.727Z,101809.69
2022-10-06T04:20:47.579Z,101824.72
2022-10-06T04:23:53.858Z,101831.31
2022-10-06T04:27:16.879Z,101830.69
2022-10-06T04:30:26.348Z,101834.31
2022-10-06T04:33:31.363Z,101838.09
2022-10-06T04:36:38.270Z,101846.50
2022-10-06T04:39:41.330Z,101842.34
2022-10-06T04:42:45.826Z,101839.56
2022-10-06T04:46:09.521Z,101844.34
2022-10-06T04:49:24.956Z,101841.19
2022-10-06T04:52:29.190Z,101837.81
2022-10-06T04:55:31.989Z,101838.00
2022-10-06T04:58:38.220Z,101835.88
2022-10-06T05:01:41.180Z,101847.91
2022-10-06T05:04:47.716Z,101857.53
2022-10-06T05:07:52.126Z,101854.72
2022-10-06T05:11:03.898Z,101860.31
2022-10-06T05:14:07.073Z,101861.84
2022-10-06T05:17:13.144Z,101854.25
2022-10-06T05:20:18.021Z,101857.09
2022-10-06T05:23:21.868Z,101865.69
2022-10-06T05:26:28.577Z,101866.22
2022-10-06T05:29:34.691Z,101871.88
2022-10-06T05:32:38.886Z,101880.31
2022-10-06T05:35:51.380Z,101880.69
2022-10-06T05:38:58.717Z,101885.16
2022-10-06T05:42:03.169Z,101878.91
2022-10-06T05:45:06.346Z,101882.72
2022-10-06T05:48:10.426Z,101878.41
2022-10-06T05:51:13.811Z,101884.69
2022-10-06T05:54:17.298Z,101896.41
2022-10-06T05:57:20.159Z,101893.44
2022-10-06T06:00:23.779Z,101897.88
2022-10-06T06:03:31.273Z,101908.81
2022-10-06T06:06:37.267Z,101910.13
2022-10-06T06:09:43.447Z,101914.09
2022-10-06T06:12:49.151Z,101922.84
2022-10-06T06:16:31.180Z,101928.91
2022-10-06T06:19:34.416Z,101928.41
2022-10-06T06:22:37.572Z,101928.31
2022-10-06T06:25:42.817Z,101932.75
2022-10-06T06:29:07.798Z,101943.81
2022-10-06T06:32:17.279Z,101940.59
2022-10-06T06:35:20.934Z,101941.19
2022-10-06T06:38:24.020Z,101950.03
2022-10-06T06:41:31.354Z,101943.13
2022-10-06T06:44:42.839Z,101949.19
2022-10-06T06:48:06.315Z,101946.34
2022-10-06T06:52:16.847Z,101942.34
2022-10-06T06:55:20.354Z,101943.00
2022-10-06T06:58:25.796Z,101954.63
2022-10-06T07:01:29.146Z,101941.16
2022-10-06T07:04:33.331Z,101957.16
2022-10-06T07:07:36.709Z,101955.59
2022-10-06T07:10:39.886Z,101959.22
2022-10-06T07:13:43.787Z,101950.34
2022-10-06T07:17:05.173Z,101949.03
2022-10-06T07:20:27.384Z,101949.47
2022-10-06T07:23:48.882Z,101957.81
2022-10-06T07:26:55.273Z,101955.72
2022-10-06T07:29:59.297Z,101948.41
2022-10-06T07:33:07.632Z,101957.09
2022-10-06T07:36:11.967Z,101952.44
2022-10-06T07:39:15.757Z,101955.16
2022-10-06T07:42:19.394Z,101964.16
2022-10-06T07:45:38.712Z,101960.16
2022-10-06T07:48:47.079Z,101956.53
2022-10-06T07:52:20.990Z,101960.09
2022-10-06T07:55:24.606Z,101966.84
2022-10-06T07:58:45.866Z,101965.84
2022-10-06T08:01:51.202Z,101969.94
2022-10-06T08:04:59.397Z,101967.91
2022-10-06T08:08:06.107Z,101973.94
2022-10-06T08:11:13.827Z,101965.28
2022-10-06T08:14:16.860Z,101965.88
2022-10-06T08:17:19.912Z,101972.16
2022-10-06T08:20:30.534Z,101968.56
2022-10-06T08:23:33.311Z,101967.78
2022-10-06T08:26:36.080Z,101970.97
2022-10-06T08:29:38.829Z,101966.44
2022-10-06T08:32:44.813Z,101971.78
2022-10-06T08:35:53.187Z,101975.31
2022-10-06T08:38:56.766Z,101977.78
2022-10-06T08:41:59.672Z,101983.34
2022-10-06T08:45:06.100Z,101975.44
2022-10-06T08:48:24.266Z,101976.59
2022-10-06T08:51:43.517Z,101981.72
2022-10-06T08:55:14.118Z,101977.00
2022-10-06T08:58:52.849Z,101980.59
2022-10-06T09:01:55.897Z,101961.00
2022-10-06T09:05:09.079Z,101965.78
2022-10-06T09:08:42.117Z,101987.72
2022-10-06T09:12:11.948Z,101986.78
2022-10-06T09:15:16.855Z,101984.31
2022-10-06T09:19:07.236Z,101987.56
2022-10-06T09:23:01.717Z,101994.78
2022-10-06T09:26:09.971Z,101986.31
2022-10-06T09:29:14.765Z,101987.06
2022-10-06T09:33:32.857Z,101994.19
2022-10-06T09:37:01.659Z,101992.91
2022-10-06T09:40:31.829Z,101996.69
2022-10-06T09:43:34.581Z,101997.41
2022-10-06T09:46:42.443Z,101993.56
2022-10-06T09:50:22.557Z,101987.56
2022-10-06T09:53:26.353Z,101982.31
2022-10-06T10:00:27.825Z,101988.16
2022-10-06T10:07:26.802Z,101985.84
2022-10-06T10:10:35.695Z,101989.03
2022-10-06T10:13:44.531Z,101984.34
2022-10-06T10:16:53.134Z,101987.75
2022-10-06T10:20:01.542Z,101989.97
2022-10-06T10:23:21.502Z,101984.03
2022-10-06T10:26:59.735Z,101991.41
2022-10-06T10:30:10.048Z,101986.91
2022-10-06T10:36:51.097Z,101981.25
2022-10-06T10:40:16.631Z,101977.44
2022-10-06T10:43:33.932Z,101979.03
2022-10-06T10:46:44.943Z,101976.75
2022-10-06T10:49:56.489Z,101975.16
2022-10-06T10:53:11.436Z,101971.53
2022-10-06T10:56:16.583Z,101979.81
2022-10-06T10:59:36.350Z,101982.75
2022-10-06T11:02:41.264Z,101982.13
2022-10-06T11:06:03.683Z,101985.88
2022-10-06T11:10:01.845Z,101973.47
2022-10-06T11:14:17.032Z,101969.69
2022-10-06T11:17:44.515Z,101967.88
2022-10-06T11:20:53.435Z,101964.88
2022-10-06T11:24:15.884Z,101967.94
2022-10-06T11:27:59.232Z,101968.19
2022-10-06T11:31:20.196Z,101959.19
2022-10-06T11:34:26.240Z,101961.22
2022-10-06T11:37:47.935Z,101965.13
2022-10-06T11:41:16.286Z,101963.16
2022-10-06T11:44:37.506Z,101951.50
2022-10-06T11:48:22.158Z,101961.34
2022-10-06T11:51:29.552Z,101958.84
2022-10-06T11:54:53.701Z,101958.50
2022-10-06T11:58:23.543Z,101953.69
2022-10-06T12:02:45.762Z,101952.28
2022-10-06T12:05:56.130Z,101956.06
2022-10-06T12:08:59.516Z,101949.31
2022-10-06T12:12:24.783Z,101957.31
2022-10-06T12:19:20.450Z,101942.28
2022-10-06T12:22:49.541Z,101942.63
2022-10-06T12:26:20.079Z,101950.09
2022-10-06T12:29:40.811Z,101944.78
2022-10-06T12:33:00.653Z,101940.50
2022-10-06T12:36:06.224Z,101942.84
2022-10-06T12:39:23.687Z,101937.19
2022-10-06T12:42:31.320Z,101932.13
2022-10-06T12:45:34.600Z,101937.31
2022-10-06T12:49:25.409Z,101928.13
2022-10-06T12:52:39.404Z,101931.25
2022-10-06T12:55:50.134Z,101932.06
2022-10-06T12:58:52.952Z,101919.66
2022-10-06T13:02:03.032Z,101915.06
2022-10-06T13:05:12.885Z,101918.53
2022-10-06T13:08:27.617Z,101914.16
2022-10-06T13:11:30.371Z,101913.25
2022-10-06T13:14:33.091Z,101912.09
2022-10-06T13:17:49.001Z,101910.72
2022-10-06T13:20:56.090Z,101910.69
2022-10-06T13:23:59.343Z,101923.97
2022-10-06T13:27:03.097Z,101914.19
2022-10-06T13:30:22.594Z,101919.25
2022-10-06T13:33:30.310Z,101922.22
2022-10-06T13:36:37.469Z,101919.06
2022-10-06T13:39:40.391Z,101918.88
2022-10-06T13:42:47.451Z,101921.88
2022-10-06T13:45:50.321Z,101916.91
2022-10-06T13:48:59.812Z,101910.47
2022-10-06T13:52:34.285Z,101905.81
2022-10-06T13:55:37.076Z,101907.13
2022-10-06T13:58:39.846Z,101907.44
2022-10-06T14:01:43.430Z,101912.91
2022-10-06T14:05:20.160Z,101909.56
2022-10-06T14:08:28.149Z,101908.34
2022-10-06T14:11:31.812Z,101920.22
2022-10-06T14:14:34.703Z,101909.84
2022-10-06T14:17:37.484Z,101910.81
2022-10-06T14:20:46.032Z,101915.97
2022-10-06T14:23:53.068Z,101917.63
2022-10-06T14:27:01.932Z,101906.09
2022-10-06T14:30:10.066Z,101912.44
2022-10-06T14:33:12.954Z,101919.78
2022-10-06T14:36:19.216Z,101910.81
2022-10-06T14:39:22.308Z,101920.25
2022-10-06T14:42:25.076Z,101924.94
2022-10-06T14:45:27.741Z,101928.06
2022-10-06T14:48:30.790Z,101932.22
2022-10-06T14:51:36.636Z,101929.63
2022-10-06T14:54:39.802Z,101930.81
2022-10-06T14:57:42.498Z,101929.84
2022-10-06T15:00:45.868Z,101936.66
2022-10-06T15:03:53.372Z,101930.50
2022-10-06T15:07:14.714Z,101937.16
2022-10-06T15:10:17.475Z,101935.63
2022-10-06T15:13:20.572Z,101938.94
2022-10-06T15:16:23.445Z,101933.41
2022-10-06T15:19:26.633Z,101938.78
2022-10-06T15:22:31.839Z,101932.63
2022-10-06T15:25:52.946Z,101935.44
2022-10-06T15:29:02.310Z,101944.47
2022-10-06T15:32:06.817Z,101945.78
2022-10-06T15:35:09.923Z,101945.44
2022-10-06T15:38:12.655Z,101948.97
2022-10-06T15:41:15.977Z,101945.06
2022-10-06T15:44:19.838Z,101950.34
2022-10-06T15:47:22.668Z,101952.72
2022-10-06T15:50:25.422Z,101950.88
2022-10-06T15:53:28.187Z,101943.41
2022-10-06T15:56:32.029Z,101948.75
2022-10-06T15:59:35.615Z,101948.97
2022-10-06T16:02:38.377Z,101947.78
2022-10-06T16:05:46.757Z,101955.13
2022-10-06T16:08:49.677Z,101957.34
2022-10-06T16:11:53.523Z,101966.81
2022-10-06T16:14:56.547Z,101967.06
2022-10-06T16:17:59.655Z,101963.94
2022-10-06T16:21:03.005Z,101966.25
2022-10-06T16:24:06.000Z,101971.38
2022-10-06T16:27:16.108Z,101968.78
2022-10-06T16:30:18.979Z,101968.25
2022-10-06T16:33:21.780Z,101969.38
2022-10-06T16:36:24.737Z,101974.41
2022-10-06T16:39:28.211Z,101976.22
2022-10-06T16:42:31.002Z,101987.50
2022-10-06T16:45:34.283Z,101986.72
2022-10-06T16:48:39.628Z,101988.09
2022-10-06T16:51:45.856Z,101989.59
2022-10-06T16:54:48.677Z,101994.00
2022-10-06T16:57:51.358Z,101998.22
2022-10-06T17:00:58.397Z,101996.38
2022-10-06T17:04:06.716Z,101990.69
2022-10-06T17:07:10.050Z,101991.97
2022-10-06T17:10:20.639Z,101992.84
2022-10-06T17:13:24.061Z,101991.25
2022-10-06T17:16:32.810Z,102003.44
2022-10-06T17:19:36.139Z,101998.28
2022-10-06T17:22:39.039Z,101997.88
2022-10-06T17:25:42.637Z,102003.69
2022-10-06T17:28:50.511Z,102002.69
2022-10-06T17:31:56.351Z,102003.94
2022-10-06T17:34:59.326Z,101998.41
2022-10-06T17:38:03.739Z,102004.59
2022-10-06T17:41:10.562Z,102005.44
2022-10-06T17:44:21.446Z,102005.44
2022-10-06T17:47:24.214Z,102002.97
2022-10-06T17:50:27.819Z,102013.09
2022-10-06T17:53:30.671Z,102021.50
2022-10-06T17:56:37.387Z,102014.09
2022-10-06T17:59:40.072Z,102013.72
2022-10-06T18:02:43.386Z,102016.00
2022-10-06T18:05:53.762Z,102008.19
2022-10-06T18:08:59.575Z,102015.41
2022-10-06T18:12:03.354Z,102015.22
2022-10-06T18:15:06.435Z,102008.63
2022-10-06T18:18:09.230Z,102015.66
2022-10-06T18:21:12.619Z,102018.75
2022-10-06T18:24:17.170Z,102017.69
2022-10-06T18:27:20.425Z,102018.53
2022-10-06T18:30:28.347Z,102020.38
2022-10-06T18:36:54.800Z,102018.69
2022-10-06T18:39:57.644Z,102023.44
2022-10-06T18:43:00.940Z,102026.94
2022-10-06T18:46:25.132Z,102023.84
2022-10-06T18:49:28.056Z,102014.38
2022-10-06T18:52:30.967Z,102017.69
2022-10-06T18:55:35.202Z,102022.63
2022-10-06T18:58:39.959Z,102031.25
2022-10-06T19:01:45.564Z,102028.94
2022-10-06T19:04:48.554Z,102036.56
2022-10-06T19:07:53.995Z,102041.09
2022-10-06T19:11:21.042Z,102042.72
2022-10-06T19:14:29.940Z,102039.81
2022-10-06T19:17:32.695Z,102041.88
2022-10-06T19:20:35.671Z,102039.16
2022-10-06T19:23:40.109Z,102039.34
2022-10-06T19:26:46.127Z,102051.25
2022-10-06T19:29:56.793Z,102047.09
2022-10-06T19:32:59.815Z,102053.66
2022-10-06T19:36:03.836Z,102046.44
2022-10-06T19:39:10.609Z,102046.41
2022-10-06T19:42:34.619Z,102052.72
2022-10-06T19:45:37.579Z,102048.63
2022-10-06T19:48:40.593Z,102052.06
2022-10-06T19:51:44.243Z,102051.22
2022-10-06T19:54:47.048Z,102049.19
2022-10-06T19:57:53.696Z,102050.09
2022-10-06T20:00:56.470Z,102047.69
2022-10-06T20:03:59.733Z,102051.50
2022-10-06T20:07:03.003Z,102059.72
2022-10-06T20:10:06.601Z,102054.72
2022-10-06T20:13:10.035Z,102054.31
2022-10-06T20:16:18.749Z,102066.09
2022-10-06T20:19:22.362Z,102064.78
2022-10-06T20:22:25.633Z,102053.81
2022-10-06T20:25:28.473Z,102054.38
2022-10-06T20:28:34.611Z,102057.38
2022-10-06T20:31:43.057Z,102061.44
2022-10-06T20:34:45.806Z,102061.75
2022-10-06T20:37:48.570Z,102063.22
2022-10-06T20:40:51.657Z,102065.28
2022-10-06T20:43:57.270Z,102064.19
2022-10-06T20:47:00.264Z,102060.44
2022-10-06T20:50:03.033Z,102056.78
2022-10-06T20:53:05.918Z,102058.41
2022-10-06T20:56:09.735Z,102050.81
2022-10-06T20:59:12.737Z,102059.19
2022-10-06T21:02:15.639Z,102064.88
2022-10-06T21:05:18.965Z,102059.22
2022-10-06T21:08:22.395Z,102059.84
2022-10-06T21:11:25.837Z,102064.66
2022-10-06T21:14:29.490Z,102066.41
2022-10-06T21:17:32.236Z,102069.44
2022-10-06T21:20:40.764Z,102070.63
2022-10-06T21:23:50.263Z,102075.97
2022-10-06T21:26:53.051Z,102072.47
2022-10-06T21:29:56.223Z,102075.69
2022-10-06T21:32:59.271Z,102069.91
2022-10-06T21:36:04.092Z,102067.44
2022-10-06T21:39:07.370Z,102069.38
2022-10-06T21:42:10.263Z,102070.47
2022-10-06T21:45:13.143Z,102061.75
2022-10-06T21:48:16.064Z,102064.97
2022-10-06T21:51:19.353Z,102065.97
2022-10-06T21:54:23.601Z,102074.72
2022-10-06T21:57:26.281Z,102068.47
2022-10-06T22:00:28.968Z,102067.97
2022-10-06T22:03:34.887Z,102071.56
2022-10-06T22:06:37.760Z,102056.06
2022-10-06T22:09:40.481Z,102056.81
2022-10-06T22:12:43.273Z,102052.22
2022-10-06T22:15:46.039Z,102051.19
2022-10-06T22:18:49.768Z,102047.91
2022-10-06T22:21:54.238Z,102043.78
2022-10-06T22:24:56.889Z,102048.81
2022-10-06T22:27:59.603Z,102048.16
2022-10-06T22:31:08.020Z,102044.41
2022-10-06T22:34:13.427Z,102033.31
2022-10-06T22:37:16.108Z,102037.25
2022-10-06T22:40:18.835Z,102037.88
2022-10-06T22:43:21.619Z,102034.84
2022-10-06T22:46:25.982Z,102035.13
2022-10-06T22:49:28.683Z,102029.16
2022-10-06T22:52:31.398Z,102039.50
2022-10-06T22:55:34.122Z,102032.22
2022-10-06T22:58:38.855Z,102039.75
2022-10-06T23:01:41.912Z,102037.09
2022-10-06T23:04:44.779Z,102033.03
2022-10-06T23:07:47.755Z,102029.91
2022-10-06T23:10:50.705Z,102023.09
2022-10-06T23:13:53.737Z,102025.16
2022-10-06T23:16:56.549Z,102024.91
2022-10-06T23:19:59.344Z,102027.22
2022-10-06T23:23:02.145Z,102033.34
2022-10-06T23:26:10.652Z,102036.00
2022-10-06T23:29:13.419Z,102035.53
2022-10-06T23:32:16.386Z,102032.38
2022-10-06T23:35:19.065Z,102024.41
2022-10-06T23:38:21.922Z,102028.78
2022-10-06T23:41:24.677Z,102035.41
2022-10-06T23:44:27.595Z,102044.38
2022-10-06T23:47:30.365Z,102043.38
2022-10-06T23:50:33.539Z,102047.75
2022-10-06T23:53:36.884Z,102044.00
2022-10-06T23:56:39.639Z,102044.16
2022-10-06T23:59:42.351Z,102044.09
